QTR22U EDDH-ENBR
Flight info
| Callsign | QTR22U |
|---|---|
| Flight time | 1h 12m |
| Altitude | 38000 |
| Route | SOKWO1G SOKWO DCT EKERN DCT TUGDU DCT ALASA DCT ALS DCT ASBIL DCT RIDSI DCT GIGUT DCT RIKSU DCT ELNIP DCT OSKOM DCT PESUR |
| Aircraft | A332/H-SDE3GHIJ2J3J5M1RVWXY/LB2D1 |
Departure
| Time | 2026-05-06 17:22 |
|---|---|
| Airport | Hamburg Helmut Schmidt Airport (EDDH) |
Arrival
| Time | 2026-05-06 18:35 |
|---|---|
| Airport | Bergen Airport, Flesland (ENBR) |
| Time | Latitude | Longitude | Altitude | Speed | Heading |
|---|---|---|---|---|---|
| 2026-05-06 17:00 | 53.63333 | 10.00341 | 50 ft | 0 kts | 86° |
| 2026-05-06 17:13 | 53.63333 | 10.00340 | 49 ft | 2 kts | 87° |
| 2026-05-06 17:14 | 53.63333 | 10.00309 | 46 ft | 3 kts | 87° |
| 2026-05-06 17:14 | 53.63332 | 10.00276 | 45 ft | 2 kts | 72° |
| 2026-05-06 17:14 | 53.63330 | 10.00246 | 42 ft | 3 kts | 120° |
| 2026-05-06 17:14 | 53.63343 | 10.00223 | 42 ft | 3 kts | 169° |
| 2026-05-06 17:15 | 53.63345 | 10.00222 | 42 ft | 0 kts | 175° |
| 2026-05-06 17:16 | 53.63340 | 10.00221 | 43 ft | 2 kts | 180° |
| 2026-05-06 17:17 | 53.63314 | 10.00218 | 47 ft | 6 kts | 185° |
| 2026-05-06 17:17 | 53.63256 | 10.00213 | 49 ft | 10 kts | 177° |
| 2026-05-06 17:17 | 53.63169 | 10.00224 | 49 ft | 15 kts | 176° |
| 2026-05-06 17:17 | 53.63060 | 10.00212 | 49 ft | 15 kts | 206° |
| 2026-05-06 17:18 | 53.62960 | 10.00106 | 49 ft | 18 kts | 213° |
| 2026-05-06 17:18 | 53.62937 | 10.00082 | 49 ft | 1 kts | 213° |
| 2026-05-06 17:18 | 53.62899 | 10.00047 | 49 ft | 7 kts | 200° |
| 2026-05-06 17:18 | 53.62886 | 10.00040 | 48 ft | 0 kts | 201° |
| 2026-05-06 17:19 | 53.62861 | 10.00000 | 50 ft | 9 kts | 231° |
| 2026-05-06 17:19 | 53.62857 | 9.99989 | 50 ft | 0 kts | 235° |
| 2026-05-06 17:20 | 53.62840 | 9.99947 | 50 ft | 8 kts | 237° |
| 2026-05-06 17:20 | 53.62816 | 9.99831 | 49 ft | 10 kts | 276° |
| 2026-05-06 17:21 | 53.62859 | 9.99750 | 48 ft | 12 kts | 327° |
| 2026-05-06 17:21 | 53.62973 | 9.99647 | 49 ft | 37 kts | 333° |
| 2026-05-06 17:21 | 53.63402 | 9.99286 | 49 ft | 97 kts | 333° |
| 2026-05-06 17:21 | 53.64164 | 9.98620 | 46 ft | 147 kts | 333° |
| 2026-05-06 17:22 | 53.65182 | 9.97743 | 243 ft | 174 kts | 336° |
| 2026-05-06 17:22 | 53.66259 | 9.96724 | 770 ft | 179 kts | 334° |
| 2026-05-06 17:22 | 53.67395 | 9.95730 | 1436 ft | 189 kts | 338° |
| 2026-05-06 17:22 | 53.68676 | 9.94869 | 1861 ft | 211 kts | 352° |
| 2026-05-06 17:23 | 53.70202 | 9.94603 | 2381 ft | 227 kts | 3° |
| 2026-05-06 17:23 | 53.71796 | 9.94604 | 2876 ft | 232 kts | 5° |
| 2026-05-06 17:23 | 53.73407 | 9.94899 | 3360 ft | 234 kts | 21° |
| 2026-05-06 17:23 | 53.74892 | 9.96102 | 3782 ft | 241 kts | 33° |
| 2026-05-06 17:24 | 53.76320 | 9.97649 | 4302 ft | 247 kts | 35° |
| 2026-05-06 17:24 | 53.77768 | 9.99271 | 4828 ft | 252 kts | 35° |
| 2026-05-06 17:24 | 53.79243 | 10.00916 | 5407 ft | 256 kts | 34° |
| 2026-05-06 17:24 | 53.80726 | 10.02555 | 6028 ft | 259 kts | 34° |
| 2026-05-06 17:25 | 53.82238 | 10.04221 | 6665 ft | 260 kts | 33° |
| 2026-05-06 17:25 | 53.83769 | 10.05903 | 7270 ft | 264 kts | 33° |
| 2026-05-06 17:25 | 53.85324 | 10.07610 | 7911 ft | 267 kts | 33° |
| 2026-05-06 17:25 | 53.86882 | 10.09317 | 8604 ft | 267 kts | 31° |
| 2026-05-06 17:26 | 53.88547 | 10.10764 | 9174 ft | 272 kts | 18° |
| 2026-05-06 17:26 | 53.90409 | 10.11354 | 9687 ft | 275 kts | 360° |
| 2026-05-06 17:26 | 53.92304 | 10.10974 | 9876 ft | 275 kts | 348° |
| 2026-05-06 17:26 | 53.94159 | 10.10213 | 9964 ft | 274 kts | 346° |
| 2026-05-06 17:27 | 53.96046 | 10.09519 | 10152 ft | 284 kts | 352° |
| 2026-05-06 17:27 | 53.98064 | 10.09051 | 10374 ft | 301 kts | 353° |
| 2026-05-06 17:27 | 54.00196 | 10.08641 | 10585 ft | 316 kts | 354° |
| 2026-05-06 17:27 | 54.02438 | 10.08271 | 10819 ft | 331 kts | 354° |
| 2026-05-06 17:28 | 54.04787 | 10.07915 | 11048 ft | 345 kts | 355° |
| 2026-05-06 17:28 | 54.07215 | 10.07560 | 11376 ft | 355 kts | 355° |
| 2026-05-06 17:28 | 54.09694 | 10.07199 | 11870 ft | 359 kts | 354° |
| 2026-05-06 17:28 | 54.12196 | 10.06829 | 12404 ft | 362 kts | 354° |
| 2026-05-06 17:29 | 54.14719 | 10.06450 | 12917 ft | 366 kts | 354° |
| 2026-05-06 17:29 | 54.17274 | 10.06062 | 13419 ft | 370 kts | 354° |
| 2026-05-06 17:29 | 54.19834 | 10.05670 | 13895 ft | 373 kts | 353° |
| 2026-05-06 17:29 | 54.22422 | 10.05272 | 14309 ft | 377 kts | 354° |
| 2026-05-06 17:30 | 54.25051 | 10.04866 | 14723 ft | 381 kts | 353° |
| 2026-05-06 17:30 | 54.27677 | 10.04461 | 15129 ft | 385 kts | 353° |
| 2026-05-06 17:30 | 54.30361 | 10.04046 | 15532 ft | 389 kts | 353° |
| 2026-05-06 17:30 | 54.33067 | 10.03628 | 15989 ft | 391 kts | 354° |
| 2026-05-06 17:31 | 54.35791 | 10.03209 | 16475 ft | 393 kts | 353° |
| 2026-05-06 17:31 | 54.38527 | 10.02786 | 16859 ft | 397 kts | 353° |
| 2026-05-06 17:31 | 54.41297 | 10.02357 | 17270 ft | 401 kts | 353° |
| 2026-05-06 17:31 | 54.44096 | 10.01924 | 17674 ft | 405 kts | 353° |
| 2026-05-06 17:32 | 54.46913 | 10.01486 | 18068 ft | 408 kts | 353° |
| 2026-05-06 17:32 | 54.49758 | 10.01044 | 18433 ft | 412 kts | 353° |
| 2026-05-06 17:32 | 54.52615 | 10.00599 | 18807 ft | 413 kts | 353° |
| 2026-05-06 17:32 | 54.55489 | 10.00151 | 19198 ft | 415 kts | 353° |
| 2026-05-06 17:33 | 54.58377 | 9.99701 | 19575 ft | 417 kts | 353° |
| 2026-05-06 17:33 | 54.61274 | 9.99248 | 19950 ft | 419 kts | 352° |
| 2026-05-06 17:33 | 54.64188 | 9.98791 | 20302 ft | 422 kts | 352° |
| 2026-05-06 17:33 | 54.67118 | 9.98331 | 20677 ft | 423 kts | 352° |
| 2026-05-06 17:34 | 54.70054 | 9.97870 | 21057 ft | 425 kts | 352° |
| 2026-05-06 17:34 | 54.73012 | 9.97405 | 21403 ft | 427 kts | 352° |
| 2026-05-06 17:34 | 54.75980 | 9.96938 | 21759 ft | 429 kts | 352° |
| 2026-05-06 17:34 | 54.78959 | 9.96519 | 22108 ft | 432 kts | 356° |
| 2026-05-06 17:35 | 54.81977 | 9.96789 | 22454 ft | 436 kts | 4° |
| 2026-05-06 17:35 | 54.84960 | 9.97470 | 22793 ft | 439 kts | 6° |
| 2026-05-06 17:35 | 54.87985 | 9.98345 | 23141 ft | 441 kts | 7° |
| 2026-05-06 17:36 | 54.94111 | 9.99204 | 23718 ft | 443 kts | 359° |
| 2026-05-06 17:36 | 54.97196 | 9.99346 | 23969 ft | 445 kts | 358° |
| 2026-05-06 17:36 | 55.00299 | 9.99404 | 24226 ft | 446 kts | 357° |
| 2026-05-06 17:36 | 55.03409 | 9.99414 | 24480 ft | 448 kts | 357° |
| 2026-05-06 17:37 | 55.06537 | 9.99403 | 24736 ft | 450 kts | 357° |
| 2026-05-06 17:37 | 55.09674 | 9.99388 | 24986 ft | 452 kts | 357° |
| 2026-05-06 17:37 | 55.12832 | 9.99375 | 25226 ft | 455 kts | 356° |
| 2026-05-06 17:37 | 55.16008 | 9.99368 | 25431 ft | 458 kts | 357° |
| 2026-05-06 17:38 | 55.19202 | 9.99365 | 25686 ft | 459 kts | 357° |
| 2026-05-06 17:38 | 55.22411 | 9.99366 | 25932 ft | 461 kts | 357° |
| 2026-05-06 17:38 | 55.25627 | 9.99370 | 26179 ft | 463 kts | 357° |
| 2026-05-06 17:38 | 55.28812 | 9.99374 | 26409 ft | 465 kts | 357° |
| 2026-05-06 17:39 | 55.32062 | 9.99379 | 26644 ft | 467 kts | 357° |
| 2026-05-06 17:39 | 55.35317 | 9.99384 | 26898 ft | 468 kts | 357° |
| 2026-05-06 17:39 | 55.38577 | 9.99388 | 27141 ft | 471 kts | 356° |
| 2026-05-06 17:39 | 55.41877 | 9.99392 | 27283 ft | 475 kts | 356° |
| 2026-05-06 17:40 | 55.45183 | 9.99396 | 27507 ft | 476 kts | 356° |
| 2026-05-06 17:40 | 55.48508 | 9.99400 | 27753 ft | 478 kts | 356° |
| 2026-05-06 17:40 | 55.51838 | 9.99405 | 27980 ft | 479 kts | 356° |
| 2026-05-06 17:40 | 55.55187 | 9.99407 | 28187 ft | 481 kts | 356° |
| 2026-05-06 17:41 | 55.58513 | 9.98992 | 28413 ft | 478 kts | 347° |
| 2026-05-06 17:41 | 55.61764 | 9.97776 | 28620 ft | 476 kts | 341° |
| 2026-05-06 17:41 | 55.64967 | 9.96215 | 28839 ft | 477 kts | 339° |
| 2026-05-06 17:41 | 55.68146 | 9.94517 | 29040 ft | 478 kts | 338° |
| 2026-05-06 17:42 | 55.71283 | 9.92759 | 29256 ft | 479 kts | 338° |
| 2026-05-06 17:42 | 55.74467 | 9.90938 | 29467 ft | 480 kts | 338° |
| 2026-05-06 17:42 | 55.77650 | 9.89110 | 29666 ft | 482 kts | 338° |
| 2026-05-06 17:42 | 55.80856 | 9.87272 | 29869 ft | 484 kts | 338° |
| 2026-05-06 17:43 | 55.84063 | 9.85441 | 30052 ft | 485 kts | 338° |
| 2026-05-06 17:43 | 55.87297 | 9.83601 | 30232 ft | 486 kts | 338° |
| 2026-05-06 17:43 | 55.90517 | 9.81765 | 30480 ft | 485 kts | 337° |
| 2026-05-06 17:43 | 55.93587 | 9.79533 | 30740 ft | 480 kts | 329° |
| 2026-05-06 17:44 | 55.96583 | 9.76915 | 30962 ft | 479 kts | 328° |
| 2026-05-06 17:44 | 55.99547 | 9.74207 | 31215 ft | 477 kts | 327° |
| 2026-05-06 17:44 | 56.02481 | 9.71451 | 31485 ft | 476 kts | 327° |
| 2026-05-06 17:44 | 56.05403 | 9.68667 | 31759 ft | 475 kts | 327° |
| 2026-05-06 17:45 | 56.08299 | 9.65895 | 32173 ft | 470 kts | 327° |
| 2026-05-06 17:45 | 56.11176 | 9.63137 | 32468 ft | 468 kts | 327° |
| 2026-05-06 17:45 | 56.14048 | 9.60382 | 32674 ft | 468 kts | 327° |
| 2026-05-06 17:45 | 56.16924 | 9.57624 | 32868 ft | 468 kts | 327° |
| 2026-05-06 17:46 | 56.19797 | 9.54868 | 33078 ft | 468 kts | 327° |
| 2026-05-06 17:46 | 56.22666 | 9.52117 | 33344 ft | 466 kts | 327° |
| 2026-05-06 17:46 | 56.25513 | 9.49383 | 33619 ft | 465 kts | 326° |
| 2026-05-06 17:46 | 56.28379 | 9.46656 | 33820 ft | 465 kts | 329° |
| 2026-05-06 17:47 | 56.31367 | 9.44348 | 33992 ft | 469 kts | 334° |
| 2026-05-06 17:47 | 56.34427 | 9.42254 | 34147 ft | 470 kts | 334° |
| 2026-05-06 17:47 | 56.37467 | 9.40256 | 34285 ft | 470 kts | 335° |
| 2026-05-06 17:47 | 56.40580 | 9.38257 | 34426 ft | 470 kts | 335° |
| 2026-05-06 17:48 | 56.45712 | 9.34996 | 34646 ft | 470 kts | 335° |
| 2026-05-06 17:48 | 56.48802 | 9.33030 | 34779 ft | 470 kts | 335° |
| 2026-05-06 17:48 | 56.52892 | 9.30416 | 34989 ft | 470 kts | 335° |
| 2026-05-06 17:49 | 56.54983 | 9.29074 | 35104 ft | 470 kts | 335° |
| 2026-05-06 17:49 | 56.58020 | 9.27118 | 35217 ft | 470 kts | 335° |
| 2026-05-06 17:49 | 56.61104 | 9.25125 | 35329 ft | 470 kts | 335° |
| 2026-05-06 17:49 | 56.64187 | 9.23129 | 35449 ft | 470 kts | 335° |
| 2026-05-06 17:50 | 56.67273 | 9.21127 | 35560 ft | 470 kts | 335° |
| 2026-05-06 17:50 | 56.70361 | 9.19121 | 35662 ft | 470 kts | 335° |
| 2026-05-06 17:50 | 56.73444 | 9.17114 | 35785 ft | 471 kts | 335° |
| 2026-05-06 17:50 | 56.76529 | 9.15103 | 35893 ft | 471 kts | 335° |
| 2026-05-06 17:51 | 56.79612 | 9.13090 | 36028 ft | 470 kts | 335° |
| 2026-05-06 17:51 | 56.82699 | 9.11071 | 36149 ft | 470 kts | 335° |
| 2026-05-06 17:51 | 56.88861 | 9.07029 | 36328 ft | 470 kts | 335° |
| 2026-05-06 17:52 | 56.91943 | 9.05002 | 36431 ft | 471 kts | 335° |
| 2026-05-06 17:52 | 56.95023 | 9.02973 | 36535 ft | 471 kts | 335° |
| 2026-05-06 17:52 | 57.01155 | 8.98923 | 36707 ft | 471 kts | 335° |
| 2026-05-06 17:53 | 57.07324 | 8.94834 | 36929 ft | 471 kts | 335° |
| 2026-05-06 17:53 | 57.10403 | 8.92789 | 37031 ft | 470 kts | 335° |
| 2026-05-06 17:53 | 57.13481 | 8.90740 | 37119 ft | 470 kts | 335° |
| 2026-05-06 17:54 | 57.19636 | 8.86632 | 37328 ft | 470 kts | 335° |
| 2026-05-06 17:54 | 57.25786 | 8.82512 | 37466 ft | 470 kts | 335° |
| 2026-05-06 17:55 | 57.31945 | 8.78370 | 37607 ft | 470 kts | 335° |
| 2026-05-06 17:55 | 57.38052 | 8.74250 | 37797 ft | 469 kts | 335° |
| 2026-05-06 17:56 | 57.44185 | 8.70096 | 37913 ft | 469 kts | 334° |
| 2026-05-06 17:56 | 57.50320 | 8.65883 | 37974 ft | 471 kts | 335° |
| 2026-05-06 17:57 | 57.56491 | 8.61695 | 37979 ft | 471 kts | 335° |
| 2026-05-06 17:57 | 57.62651 | 8.57500 | 37978 ft | 471 kts | 335° |
| 2026-05-06 17:58 | 57.68806 | 8.53279 | 37974 ft | 470 kts | 335° |
| 2026-05-06 17:58 | 57.74944 | 8.49055 | 37983 ft | 470 kts | 335° |
| 2026-05-06 17:59 | 57.81055 | 8.44910 | 37965 ft | 469 kts | 335° |
| 2026-05-06 17:59 | 57.87180 | 8.40770 | 37967 ft | 469 kts | 335° |
| 2026-05-06 18:00 | 57.93330 | 8.36595 | 37990 ft | 469 kts | 335° |
| 2026-05-06 18:00 | 57.99462 | 8.32410 | 37966 ft | 468 kts | 335° |
| 2026-05-06 18:01 | 58.05554 | 8.28234 | 37965 ft | 468 kts | 335° |
| 2026-05-06 18:01 | 58.11677 | 8.24022 | 37965 ft | 468 kts | 335° |
| 2026-05-06 18:02 | 58.17808 | 8.19789 | 37966 ft | 468 kts | 335° |
| 2026-05-06 18:02 | 58.23932 | 8.15544 | 37969 ft | 468 kts | 335° |
| 2026-05-06 18:03 | 58.30053 | 8.11288 | 37966 ft | 468 kts | 335° |
| 2026-05-06 18:03 | 58.36135 | 8.07042 | 37975 ft | 468 kts | 335° |
| 2026-05-06 18:04 | 58.42242 | 8.02764 | 37967 ft | 467 kts | 335° |
| 2026-05-06 18:04 | 58.48338 | 7.98477 | 37978 ft | 467 kts | 335° |
| 2026-05-06 18:05 | 58.54440 | 7.94170 | 37981 ft | 467 kts | 335° |
| 2026-05-06 18:05 | 58.60535 | 7.89851 | 37985 ft | 467 kts | 335° |
| 2026-05-06 18:06 | 58.66588 | 7.85546 | 37891 ft | 466 kts | 335° |
| 2026-05-06 18:06 | 58.69637 | 7.83372 | 37292 ft | 468 kts | 334° |
| 2026-05-06 18:06 | 58.72688 | 7.81192 | 36830 ft | 466 kts | 334° |
| 2026-05-06 18:07 | 58.75726 | 7.79020 | 36380 ft | 464 kts | 334° |
| 2026-05-06 18:07 | 58.78747 | 7.76856 | 35916 ft | 463 kts | 334° |
| 2026-05-06 18:07 | 58.81768 | 7.74689 | 35513 ft | 462 kts | 333° |
| 2026-05-06 18:07 | 58.84775 | 7.72527 | 35032 ft | 461 kts | 333° |
| 2026-05-06 18:08 | 58.87783 | 7.70358 | 34541 ft | 461 kts | 332° |
| 2026-05-06 18:08 | 58.90790 | 7.68183 | 34042 ft | 461 kts | 332° |
| 2026-05-06 18:08 | 58.93792 | 7.66008 | 33477 ft | 460 kts | 332° |
| 2026-05-06 18:08 | 58.96793 | 7.63828 | 32900 ft | 460 kts | 332° |
| 2026-05-06 18:09 | 58.99786 | 7.61655 | 32386 ft | 458 kts | 332° |
| 2026-05-06 18:09 | 59.02732 | 7.59513 | 32067 ft | 457 kts | 332° |
| 2026-05-06 18:09 | 59.08739 | 7.55120 | 32008 ft | 462 kts | 332° |
| 2026-05-06 18:10 | 59.14770 | 7.50695 | 32003 ft | 462 kts | 331° |
| 2026-05-06 18:10 | 59.20707 | 7.45968 | 32014 ft | 460 kts | 329° |
| 2026-05-06 18:11 | 59.26589 | 7.41150 | 31959 ft | 460 kts | 329° |
| 2026-05-06 18:11 | 59.29554 | 7.38715 | 31352 ft | 462 kts | 329° |
| 2026-05-06 18:11 | 59.32515 | 7.36282 | 30869 ft | 461 kts | 329° |
| 2026-05-06 18:12 | 59.35465 | 7.33858 | 30361 ft | 459 kts | 329° |
| 2026-05-06 18:12 | 59.38413 | 7.31431 | 29854 ft | 456 kts | 328° |
| 2026-05-06 18:12 | 59.41329 | 7.29026 | 29426 ft | 453 kts | 328° |
| 2026-05-06 18:12 | 59.44222 | 7.26633 | 28864 ft | 450 kts | 328° |
| 2026-05-06 18:13 | 59.47097 | 7.24251 | 28433 ft | 445 kts | 328° |
| 2026-05-06 18:13 | 59.49900 | 7.21926 | 28038 ft | 440 kts | 328° |
| 2026-05-06 18:13 | 59.52712 | 7.19589 | 27580 ft | 436 kts | 328° |
| 2026-05-06 18:13 | 59.55494 | 7.17273 | 27124 ft | 432 kts | 328° |
| 2026-05-06 18:14 | 59.58254 | 7.14970 | 26753 ft | 427 kts | 329° |
| 2026-05-06 18:14 | 59.60973 | 7.12697 | 26335 ft | 423 kts | 329° |
| 2026-05-06 18:14 | 59.63650 | 7.10455 | 25913 ft | 419 kts | 329° |
| 2026-05-06 18:14 | 59.66318 | 7.08212 | 25508 ft | 415 kts | 329° |
| 2026-05-06 18:15 | 59.68963 | 7.05988 | 25108 ft | 411 kts | 329° |
| 2026-05-06 18:15 | 59.71583 | 7.03784 | 24783 ft | 407 kts | 328° |
| 2026-05-06 18:15 | 59.74174 | 7.01600 | 24421 ft | 402 kts | 328° |
| 2026-05-06 18:15 | 59.76734 | 6.99441 | 24025 ft | 398 kts | 328° |
| 2026-05-06 18:16 | 59.79275 | 6.97293 | 23621 ft | 395 kts | 328° |
| 2026-05-06 18:16 | 59.81789 | 6.95162 | 23139 ft | 391 kts | 328° |
| 2026-05-06 18:16 | 59.84286 | 6.93042 | 22589 ft | 389 kts | 328° |
| 2026-05-06 18:16 | 59.86765 | 6.90930 | 22089 ft | 387 kts | 328° |
| 2026-05-06 18:17 | 59.89239 | 6.88818 | 21595 ft | 385 kts | 328° |
| 2026-05-06 18:17 | 59.91691 | 6.86723 | 21123 ft | 382 kts | 328° |
| 2026-05-06 18:17 | 59.94125 | 6.84639 | 20631 ft | 380 kts | 329° |
| 2026-05-06 18:17 | 59.96515 | 6.82595 | 20159 ft | 378 kts | 329° |
| 2026-05-06 18:18 | 59.98927 | 6.80531 | 19691 ft | 376 kts | 329° |
| 2026-05-06 18:18 | 60.01322 | 6.78476 | 19352 ft | 372 kts | 328° |
| 2026-05-06 18:18 | 60.03686 | 6.76448 | 18958 ft | 367 kts | 329° |
| 2026-05-06 18:18 | 60.06024 | 6.74432 | 18530 ft | 365 kts | 329° |
| 2026-05-06 18:19 | 60.08346 | 6.72424 | 18028 ft | 363 kts | 329° |
| 2026-05-06 18:19 | 60.10659 | 6.70424 | 17475 ft | 361 kts | 329° |
| 2026-05-06 18:19 | 60.12955 | 6.68434 | 16918 ft | 358 kts | 330° |
| 2026-05-06 18:19 | 60.15220 | 6.66474 | 16081 ft | 352 kts | 330° |
| 2026-05-06 18:20 | 60.17457 | 6.64535 | 15144 ft | 348 kts | 332° |
| 2026-05-06 18:20 | 60.19674 | 6.62606 | 14249 ft | 346 kts | 333° |
| 2026-05-06 18:20 | 60.21858 | 6.60626 | 13352 ft | 342 kts | 329° |
| 2026-05-06 18:20 | 60.23816 | 6.58024 | 12467 ft | 334 kts | 319° |
| 2026-05-06 18:21 | 60.25476 | 6.54905 | 12089 ft | 321 kts | 310° |
| 2026-05-06 18:21 | 60.26740 | 6.51305 | 11831 ft | 310 kts | 298° |
| 2026-05-06 18:21 | 60.27681 | 6.47471 | 11696 ft | 300 kts | 294° |
| 2026-05-06 18:21 | 60.28502 | 6.43682 | 11565 ft | 291 kts | 292° |
| 2026-05-06 18:22 | 60.29268 | 6.39982 | 11417 ft | 282 kts | 292° |
| 2026-05-06 18:22 | 60.29997 | 6.36376 | 11258 ft | 274 kts | 292° |
| 2026-05-06 18:22 | 60.30703 | 6.32842 | 11037 ft | 270 kts | 291° |
| 2026-05-06 18:22 | 60.31397 | 6.29336 | 10714 ft | 269 kts | 291° |
| 2026-05-06 18:23 | 60.32093 | 6.25808 | 10289 ft | 272 kts | 291° |
| 2026-05-06 18:23 | 60.32788 | 6.22270 | 10058 ft | 270 kts | 291° |
| 2026-05-06 18:23 | 60.33477 | 6.18755 | 10028 ft | 270 kts | 291° |
| 2026-05-06 18:23 | 60.34165 | 6.15232 | 10022 ft | 270 kts | 291° |
| 2026-05-06 18:24 | 60.34845 | 6.11752 | 10028 ft | 270 kts | 291° |
| 2026-05-06 18:24 | 60.35531 | 6.08227 | 9963 ft | 271 kts | 291° |
| 2026-05-06 18:24 | 60.36224 | 6.04659 | 9514 ft | 274 kts | 291° |
| 2026-05-06 18:24 | 60.36915 | 6.01101 | 9256 ft | 269 kts | 291° |
| 2026-05-06 18:25 | 60.37594 | 5.97598 | 8943 ft | 266 kts | 291° |
| 2026-05-06 18:25 | 60.38266 | 5.94119 | 8610 ft | 265 kts | 290° |
| 2026-05-06 18:25 | 60.38934 | 5.90656 | 8294 ft | 263 kts | 290° |
| 2026-05-06 18:25 | 60.39597 | 5.87215 | 7967 ft | 261 kts | 290° |
| 2026-05-06 18:26 | 60.40246 | 5.83841 | 7836 ft | 254 kts | 290° |
| 2026-05-06 18:26 | 60.40875 | 5.80565 | 7698 ft | 245 kts | 290° |
| 2026-05-06 18:26 | 60.41485 | 5.77381 | 7488 ft | 240 kts | 290° |
| 2026-05-06 18:26 | 60.42087 | 5.74235 | 7221 ft | 239 kts | 290° |
| 2026-05-06 18:27 | 60.42682 | 5.71114 | 7049 ft | 237 kts | 290° |
| 2026-05-06 18:27 | 60.43271 | 5.68000 | 6931 ft | 239 kts | 289° |
| 2026-05-06 18:27 | 60.43818 | 5.64752 | 6537 ft | 244 kts | 288° |
| 2026-05-06 18:27 | 60.44339 | 5.61519 | 6372 ft | 239 kts | 288° |
| 2026-05-06 18:28 | 60.44845 | 5.58355 | 6040 ft | 234 kts | 288° |
| 2026-05-06 18:28 | 60.45339 | 5.55220 | 5558 ft | 234 kts | 285° |
| 2026-05-06 18:28 | 60.45737 | 5.52019 | 5262 ft | 234 kts | 283° |
| 2026-05-06 18:28 | 60.46100 | 5.48818 | 4986 ft | 233 kts | 282° |
| 2026-05-06 18:29 | 60.46458 | 5.45619 | 4713 ft | 232 kts | 282° |
| 2026-05-06 18:29 | 60.46815 | 5.42445 | 4450 ft | 230 kts | 282° |
| 2026-05-06 18:29 | 60.47172 | 5.39291 | 4217 ft | 227 kts | 282° |
| 2026-05-06 18:29 | 60.47523 | 5.36221 | 4105 ft | 220 kts | 282° |
| 2026-05-06 18:30 | 60.47840 | 5.33246 | 3977 ft | 213 kts | 277° |
| 2026-05-06 18:30 | 60.47897 | 5.30273 | 3722 ft | 209 kts | 269° |
| 2026-05-06 18:30 | 60.47842 | 5.27350 | 3489 ft | 206 kts | 268° |
| 2026-05-06 18:30 | 60.47775 | 5.24459 | 3203 ft | 205 kts | 267° |
| 2026-05-06 18:31 | 60.47480 | 5.21654 | 3000 ft | 206 kts | 242° |
| 2026-05-06 18:31 | 60.46459 | 5.19646 | 2996 ft | 208 kts | 211° |
| 2026-05-06 18:31 | 60.45145 | 5.18463 | 2989 ft | 204 kts | 203° |
| 2026-05-06 18:31 | 60.43833 | 5.17575 | 2949 ft | 193 kts | 196° |
| 2026-05-06 18:32 | 60.42506 | 5.17337 | 2727 ft | 192 kts | 178° |
| 2026-05-06 18:32 | 60.41185 | 5.17753 | 2453 ft | 191 kts | 170° |
| 2026-05-06 18:32 | 60.39905 | 5.18249 | 2176 ft | 185 kts | 173° |
| 2026-05-06 18:32 | 60.38647 | 5.18660 | 1920 ft | 182 kts | 173° |
| 2026-05-06 18:33 | 60.37398 | 5.19085 | 1653 ft | 180 kts | 172° |
| 2026-05-06 18:33 | 60.36205 | 5.19493 | 1419 ft | 172 kts | 173° |
| 2026-05-06 18:33 | 60.35014 | 5.19895 | 1151 ft | 173 kts | 173° |
| 2026-05-06 18:33 | 60.33829 | 5.20292 | 859 ft | 175 kts | 172° |
| 2026-05-06 18:34 | 60.32644 | 5.20728 | 645 ft | 172 kts | 171° |
| 2026-05-06 18:34 | 60.31478 | 5.21119 | 407 ft | 169 kts | 169° |
| 2026-05-06 18:34 | 60.30328 | 5.21502 | 190 ft | 167 kts | 171° |
| 2026-05-06 18:34 | 60.29427 | 5.21794 | 158 ft | 80 kts | 171° |
| 2026-05-06 18:35 | 60.28978 | 5.21940 | 154 ft | 48 kts | 171° |
| 2026-05-06 18:35 | 60.28715 | 5.22034 | 153 ft | 19 kts | 162° |
| 2026-05-06 18:35 | 60.28670 | 5.22092 | 152 ft | 5 kts | 117° |
| 2026-05-06 18:35 | 60.28667 | 5.22120 | 152 ft | 0 kts | 92° |
| 2026-05-06 18:36 | 60.28668 | 5.22138 | 152 ft | 0 kts | 84° |
| 2026-05-06 18:37 | 60.28668 | 5.22139 | 152 ft | 1 kts | 84° |
| 2026-05-06 18:37 | 60.28671 | 5.22174 | 152 ft | 4 kts | 81° |
| 2026-05-06 18:37 | 60.28674 | 5.22209 | 152 ft | 2 kts | 79° |
| 2026-05-06 18:38 | 60.28680 | 5.22276 | 152 ft | 7 kts | 80° |
| 2026-05-06 18:38 | 60.28684 | 5.22323 | 152 ft | 4 kts | 80° |
| 2026-05-06 18:38 | 60.28684 | 5.22335 | 152 ft | 0 kts | 81° |
| 2026-05-06 18:39 | 60.28686 | 5.22351 | 152 ft | 6 kts | 81° |
| 2026-05-06 18:39 | 60.28702 | 5.22464 | 152 ft | 5 kts | 72° |
| 2026-05-06 18:39 | 60.28730 | 5.22508 | 153 ft | 6 kts | 9° |
| 2026-05-06 18:40 | 60.28822 | 5.22605 | 153 ft | 0 kts | 35° |
| 2026-05-06 18:41 | 60.28827 | 5.22611 | 153 ft | 0 kts | 35° |